Time;durP1;ratioP1;P1;durP2;ratioP2;P2;SDS_P1;SDS_P2;PMS_P1;PMS_P2;Temp;Humidity;BMP_temperature;BMP_pressure;BME280_temperature;BME280_humidity;BME280_pressure;Samples;Min_cycle;Max_cycle;Signal;HPM_P1;HPM_P2
2020/12/22 00:03:52;;;;;;;105.85;42.85;;;;;;;-1.21;100.00;99801.65;4310024;81;44252;-90
2020/12/22 00:09:54;;;;;;;106.67;45.00;;;;;;;-1.28;100.00;99797.41;4244646;82;44260;-83
2020/12/22 00:15:56;;;;;;;111.62;45.03;;;;;;;-1.30;100.00;99786.16;4253679;82;44438;-82
2020/12/22 00:21:59;;;;;;;107.32;45.33;;;;;;;-1.32;100.00;99774.06;4320335;81;44290;-83
2020/12/22 00:28:01;;;;;;;111.50;45.15;;;;;;;-1.25;100.00;99777.83;4321098;81;44263;-83
2020/12/22 00:34:03;;;;;;;113.75;44.70;;;;;;;-1.42;100.00;99773.55;4321569;81;44657;-85
2020/12/22 00:40:05;;;;;;;102.97;44.75;;;;;;;-1.32;100.00;99777.55;4326471;81;44194;-85
2020/12/22 00:46:07;;;;;;;107.70;45.23;;;;;;;-1.50;100.00;99766.82;4325150;81;44255;-87
2020/12/22 00:52:09;;;;;;;99.42;43.38;;;;;;;-1.45;100.00;99760.64;4320329;81;43840;-85
2020/12/22 00:58:12;;;;;;;109.95;45.45;;;;;;;-1.47;100.00;99757.31;4310895;81;44266;-85
2020/12/22 01:04:15;;;;;;;110.17;42.58;;;;;;;-1.29;100.00;99745.61;4285739;82;44271;-85
2020/12/22 01:10:18;;;;;;;105.10;43.65;;;;;;;-1.36;100.00;99739.70;4276052;82;44271;-83
2020/12/22 01:16:20;;;;;;;102.10;43.08;;;;;;;-1.57;100.00;99734.03;4257989;82;43994;-85
2020/12/22 01:22:22;;;;;;;96.22;39.58;;;;;;;-1.55;100.00;99733.41;4281936;82;43673;-84
2020/12/22 01:28:24;;;;;;;89.40;39.20;;;;;;;-1.73;100.00;99714.77;4244431;82;44477;-82
2020/12/22 01:34:26;;;;;;;94.50;41.18;;;;;;;-1.72;100.00;99695.34;4238752;83;44482;-82
2020/12/22 01:40:28;;;;;;;95.40;40.15;;;;;;;-1.84;100.00;99694.14;4246329;83;43700;-82
2020/12/22 01:46:37;;;;;;;78.92;35.30;;;;;;;-1.93;100.00;99705.48;4250077;82;43215;-81
2020/12/22 01:52:44;;;;;;;78.67;34.08;;;;;;;-2.18;100.00;99701.50;4235983;83;43062;-83
2020/12/22 01:58:46;;;;;;;78.75;34.58;;;;;;;-2.29;100.00;99692.72;4288157;82;43038;-82
2020/12/22 02:04:49;;;;;;;73.33;32.25;;;;;;;-2.36;100.00;99686.30;4316046;81;44117;-84
2020/12/22 02:10:51;;;;;;;70.80;31.30;;;;;;;-2.35;100.00;99668.20;4239802;83;44079;-83
2020/12/22 02:16:53;;;;;;;76.65;32.13;;;;;;;-2.30;100.00;99648.91;4311119;81;43687;-84
2020/12/22 02:22:57;;;;;;;78.47;34.27;;;;;;;-2.19;100.00;99649.27;4310915;81;43036;-84
2020/12/22 02:29:00;;;;;;;79.97;34.23;;;;;;;-2.14;100.00;99659.42;4289419;82;43069;-83
2020/12/22 02:35:04;;;;;;;77.03;33.90;;;;;;;-2.22;100.00;99652.19;4288825;82;42398;-83
2020/12/22 02:41:07;;;;;;;72.08;31.48;;;;;;;-2.19;100.00;99660.31;4289016;82;44110;-82
2020/12/22 02:47:15;;;;;;;76.47;32.40;;;;;;;-2.10;100.00;99641.89;4302456;81;43285;-82
2020/12/22 02:53:17;;;;;;;67.32;31.60;;;;;;;-2.10;100.00;99640.58;4283429;81;44109;-83
2020/12/22 02:59:19;;;;;;;70.30;31.40;;;;;;;-2.06;100.00;99623.20;4283229;82;44106;-82
2020/12/22 03:05:21;;;;;;;73.20;31.33;;;;;;;-2.19;100.00;99607.13;4258274;82;44079;-81
2020/12/22 03:11:23;;;;;;;70.57;31.25;;;;;;;-2.16;100.00;99598.13;4282938;82;44078;-81
2020/12/22 03:17:26;;;;;;;70.17;30.25;;;;;;;-2.10;100.00;99591.01;4283375;82;44110;-79
2020/12/22 03:23:30;;;;;;;74.25;32.40;;;;;;;-2.25;100.00;99592.69;4282674;82;44149;-80
2020/12/22 03:29:39;;;;;;;77.80;32.58;;;;;;;-2.32;100.00;99596.84;4281611;82;42718;-81
2020/12/22 03:35:43;;;;;;;73.37;30.77;;;;;;;-2.15;100.00;99590.56;4283499;82;44078;-82
2020/12/22 03:41:48;;;;;;;75.42;32.48;;;;;;;-2.13;100.00;99584.70;4271831;82;43649;-82
2020/12/22 03:47:50;;;;;;;71.62;31.35;;;;;;;-2.16;100.00;99559.92;4283587;82;44124;-83
2020/12/22 03:53:54;;;;;;;70.32;32.25;;;;;;;-2.18;100.00;99556.59;4274288;81;44090;-83
2020/12/22 03:59:56;;;;;;;71.30;30.27;;;;;;;-1.87;100.00;99565.72;4220679;82;44106;-84
2020/12/22 04:05:58;;;;;;;73.33;31.60;;;;;;;-1.88;100.00;99563.56;4316326;81;44081;-80
2020/12/22 04:12:00;;;;;;;76.65;31.73;;;;;;;-2.03;100.00;99560.52;4246505;82;43645;-82
2020/12/22 04:18:03;;;;;;;73.75;31.75;;;;;;;-1.88;100.00;99539.84;4343925;81;44112;-82
2020/12/22 04:24:09;;;;;;;70.32;31.02;;;;;;;-1.89;100.00;99541.31;4324334;81;44121;-82
2020/12/22 04:30:11;;;;;;;71.80;30.68;;;;;;;-1.92;100.00;99554.77;4246445;82;44107;-82
2020/12/22 04:36:13;;;;;;;78.72;32.65;;;;;;;-1.92;100.00;99530.55;4245822;83;42959;-83
2020/12/22 04:42:18;;;;;;;69.27;31.20;;;;;;;-1.81;100.00;99520.37;4242241;82;44080;-82
2020/12/22 04:48:24;;;;;;;74.07;32.13;;;;;;;-1.76;100.00;99517.32;4308040;81;28584;-84
2020/12/22 04:54:28;;;;;;;70.15;31.30;;;;;;;-1.97;100.00;99510.38;4319514;81;44134;-85
2020/12/22 05:00:32;;;;;;;72.40;30.90;;;;;;;-1.73;100.00;99531.03;4259735;81;44093;-88
2020/12/22 05:06:34;;;;;;;74.10;32.10;;;;;;;-1.81;100.00;99508.51;4315662;82;44202;-85
2020/12/22 05:12:39;;;;;;;70.97;30.10;;;;;;;-1.63;100.00;99501.19;4315862;82;44101;-86
2020/12/22 05:18:45;;;;;;;75.85;33.50;;;;;;;-1.78;100.00;99517.92;4315806;82;44097;-86
2020/12/22 05:24:51;;;;;;;;;;;;;;;-1.64;100.00;99501.70;4320840;82;28584;-84
2020/12/22 05:30:53;;;;;;;75.30;31.68;;;;;;;-1.55;100.00;99488.98;4315217;81;44101;-84
2020/12/22 05:36:59;;;;;;;69.05;31.33;;;;;;;-1.46;100.00;99483.81;4314377;81;44097;-81
2020/12/22 05:43:01;;;;;;;70.92;32.40;;;;;;;-1.47;100.00;99476.40;4313108;81;44172;-81
2020/12/22 05:49:07;;;;;;;68.10;31.10;;;;;;;-1.53;100.00;99467.72;4326609;80;44108;-81
2020/12/22 05:55:13;;;;;;;69.12;32.38;;;;;;;-1.30;100.00;99459.00;4314613;81;44082;-84
2020/12/22 06:01:30;;;;;;;67.25;31.00;;;;;;;-1.38;100.00;99449.64;4287249;81;44117;-82
2020/12/22 06:07:32;;;;;;;68.22;30.45;;;;;;;-1.28;100.00;99448.31;4303634;81;44098;-83
2020/12/22 06:13:34;;;;;;;68.28;30.15;;;;;;;-1.32;100.00;99445.59;4296532;81;44096;-81
2020/12/22 06:19:38;;;;;;;64.77;31.23;;;;;;;-1.17;100.00;99442.84;4327971;81;44082;-82
2020/12/22 06:25:41;;;;;;;65.30;30.12;;;;;;;-1.02;100.00;99427.84;4318179;81;44105;-82
2020/12/22 06:31:43;;;;;;;63.80;29.67;;;;;;;-1.16;100.00;99425.19;4323948;81;43409;-79
2020/12/22 06:37:47;;;;;;;71.53;32.03;;;;;;;-1.10;100.00;99415.39;4290537;81;44109;-78
2020/12/22 06:43:50;;;;;;;67.00;32.50;;;;;;;-0.95;100.00;99413.56;4319484;81;44095;-81
2020/12/22 06:49:53;;;;;;;67.32;31.12;;;;;;;-1.01;100.00;99402.63;4288015;81;44078;-81
2020/12/22 06:55:57;;;;;;;67.95;31.85;;;;;;;-1.01;100.00;99394.72;4306384;81;28571;-81
2020/12/22 07:02:00;;;;;;;68.80;32.67;;;;;;;-0.94;100.00;99396.75;4302279;81;44088;-80
2020/12/22 07:08:03;;;;;;;68.75;32.10;;;;;;;-0.82;100.00;99383.70;4309417;81;44396;-83
2020/12/22 07:14:07;;;;;;;76.42;33.65;;;;;;;-0.72;100.00;99379.67;4354001;81;43678;-80
2020/12/22 07:20:10;;;;;;;74.70;35.63;;;;;;;-0.46;100.00;99374.47;4306146;81;43738;-83
2020/12/22 07:26:16;;;;;;;72.12;32.30;;;;;;;-0.29;100.00;99376.77;4321664;81;44120;-82
2020/12/22 07:32:21;;;;;;;84.50;36.20;;;;;;;-0.18;100.00;99380.16;4308673;81;28605;-82
2020/12/22 07:38:23;;;;;;;74.07;33.78;;;;;;;-0.22;100.00;99376.98;4242564;82;44078;-82
2020/12/22 07:44:26;;;;;;;79.40;35.98;;;;;;;-0.12;100.00;99362.38;4226064;83;43425;-82
2020/12/22 07:50:28;;;;;;;77.72;35.43;;;;;;;-0.13;100.00;99348.82;4242502;82;43330;-83
2020/12/22 07:56:34;;;;;;;76.72;35.68;;;;;;;0.05;100.00;99349.25;4254420;82;42868;-84
2020/12/22 08:02:40;;;;;;;78.37;35.05;;;;;;;0.29;100.00;99330.58;4264197;82;28630;-82
2020/12/22 08:08:42;;;;;;;83.05;36.80;;;;;;;0.33;100.00;99331.91;4304777;82;43443;-83
2020/12/22 08:14:46;;;;;;;71.75;34.00;;;;;;;0.50;100.00;99324.40;4336303;81;28559;-83
2020/12/22 08:20:49;;;;;;;82.40;35.83;;;;;;;0.68;100.00;99328.27;4288115;83;44256;-83
2020/12/22 08:26:53;;;;;;;86.12;37.40;;;;;;;0.90;100.00;99323.37;4257564;82;44430;-82
2020/12/22 08:32:58;;;;;;;82.60;36.63;;;;;;;0.89;100.00;99316.42;4272688;82;28605;-82
2020/12/22 08:39:23;;;;;;;81.45;37.33;;;;;;;0.85;100.00;99310.29;4280192;83;28598;-81
2020/12/22 08:45:27;;;;;;;86.10;38.65;;;;;;;0.93;100.00;99299.72;4289932;82;44455;-81
2020/12/22 08:51:29;;;;;;;86.85;38.92;;;;;;;0.94;100.00;99289.47;4250497;82;44462;-81
2020/12/22 08:57:31;;;;;;;83.80;37.35;;;;;;;1.17;100.00;99265.84;4237249;83;44446;-82
2020/12/22 09:03:34;;;;;;;94.03;39.78;;;;;;;1.15;100.00;99249.77;4255811;82;28589;-82
2020/12/22 09:09:40;;;;;;;79.87;36.42;;;;;;;1.07;100.00;99247.95;4322621;81;28657;-82
2020/12/22 09:15:54;;;;;;;75.32;37.40;;;;;;;1.09;100.00;99232.72;4336648;81;28588;-83
2020/12/22 09:22:00;;;;;;;83.67;37.25;;;;;;;1.22;100.00;99218.48;4345132;81;28551;-82
2020/12/22 09:28:03;;;;;;;;;;;;;;;1.32;100.00;99201.59;4324677;81;28567;-79
2020/12/22 09:34:04;;;;;;;80.45;37.63;;;;;;;1.45;100.00;99194.47;4336615;81;20298;-79
2020/12/22 09:40:09;;;;;;;80.80;37.55;;;;;;;1.42;100.00;99178.91;4297285;81;43779;-82
2020/12/22 09:46:11;;;;;;;79.55;35.83;;;;;;;1.41;100.00;99187.34;4309668;81;28555;-81
2020/12/22 09:52:13;;;;;;;77.67;35.50;;;;;;;1.58;100.00;99175.41;4346222;81;28586;-79
2020/12/22 09:58:15;;;;;;;77.17;36.95;;;;;;;1.65;100.00;99168.41;4306804;81;28575;-81
2020/12/22 10:04:18;;;;;;;78.97;38.15;;;;;;;1.49;100.00;99172.77;4265978;81;28594;-80
2020/12/22 10:10:21;;;;;;;73.57;36.65;;;;;;;1.78;100.00;99166.07;4296313;81;28545;-83
2020/12/22 10:16:24;;;;;;;79.85;37.40;;;;;;;1.86;100.00;99163.88;4277664;82;28577;-80
2020/12/22 10:22:30;;;;;;;73.92;36.30;;;;;;;2.01;100.00;99148.08;4287583;82;28562;-80
2020/12/22 10:28:35;;;;;;;71.62;33.95;;;;;;;1.92;100.00;99138.50;4284921;81;28550;-80
2020/12/22 10:34:38;;;;;;;;;;;;;;;2.05;100.00;99148.05;4297219;81;28546;-83
2020/12/22 10:40:42;;;;;;;70.05;34.90;;;;;;;2.05;100.00;99132.66;4269206;81;21095;-80
2020/12/22 10:46:47;;;;;;;76.17;36.83;;;;;;;2.08;100.00;99125.66;4288407;82;28577;-81
2020/12/22 10:52:49;;;;;;;78.10;37.38;;;;;;;2.21;100.00;99110.00;4279715;81;28547;-81
2020/12/22 10:58:51;;;;;;;76.72;36.42;;;;;;;2.18;100.00;99110.84;4291824;82;28608;-81
2020/12/22 11:04:54;;;;;;;77.90;34.98;;;;;;;2.08;100.00;99091.19;4314195;81;28550;-81
2020/12/22 11:10:57;;;;;;;70.37;35.52;;;;;;;2.13;100.00;99080.05;4297668;81;28552;-83
2020/12/22 11:17:01;;;;;;;77.47;38.13;;;;;;;2.35;100.00;99067.30;4269785;81;28635;-82
2020/12/22 11:23:06;;;;;;;77.00;38.02;;;;;;;2.25;100.00;99058.75;4291618;81;28570;-86
2020/12/22 11:29:09;;;;;;;77.93;37.40;;;;;;;2.27;100.00;99053.27;4228275;82;28560;-84
2020/12/22 11:35:12;;;;;;;76.82;37.00;;;;;;;2.25;100.00;99059.27;4278287;81;28594;-83
2020/12/22 11:41:22;;;;;;;76.15;35.85;;;;;;;2.27;100.00;99061.23;4291652;81;28564;-84
2020/12/22 11:47:25;;;;;;;68.17;34.33;;;;;;;2.19;100.00;99061.61;4271274;81;28588;-81
2020/12/22 11:53:27;;;;;;;73.00;36.50;;;;;;;2.34;100.00;99047.08;4238648;82;28515;-81
2020/12/22 11:59:29;;;;;;;72.95;36.55;;;;;;;2.37;100.00;99033.96;4213320;82;28642;-81
2020/12/22 12:05:31;;;;;;;71.30;37.17;;;;;;;2.63;100.00;99016.81;4326585;81;28621;-81
2020/12/22 12:11:35;;;;;;;65.92;34.40;;;;;;;2.64;100.00;99021.12;4308311;81;28554;-81
2020/12/22 12:17:38;;;;;;;70.65;34.88;;;;;;;2.62;100.00;99021.80;4315774;81;28578;-81
2020/12/22 12:23:43;;;;;;;71.20;34.80;;;;;;;2.72;100.00;99002.98;4338329;81;28558;-81
2020/12/22 12:29:45;;;;;;;71.87;34.90;;;;;;;2.73;100.00;99000.64;4328071;81;28567;-81
2020/12/22 12:35:48;;;;;;;75.08;36.45;;;;;;;2.90;100.00;98993.34;4360268;81;28602;-83
2020/12/22 12:41:50;;;;;;;75.30;39.13;;;;;;;2.95;100.00;98994.92;4348063;79;28544;-89
2020/12/22 12:47:52;;;;;;;74.10;37.25;;;;;;;2.84;100.00;98996.22;4332482;81;28557;-82
2020/12/22 12:53:54;;;;;;;67.97;34.50;;;;;;;2.76;100.00;98990.50;4328524;81;28647;-85
2020/12/22 12:59:56;;;;;;;74.97;36.73;;;;;;;2.84;100.00;99002.86;4281484;81;28645;-85
2020/12/22 13:05:58;;;;;;;70.87;36.15;;;;;;;2.98;100.00;98999.89;4288010;81;28574;-82
2020/12/22 13:12:00;;;;;;;78.02;38.92;;;;;;;2.95;100.00;98996.77;4292171;81;28550;-83
2020/12/22 13:18:02;;;;;;;74.17;36.98;;;;;;;2.74;100.00;98989.83;4295449;81;28542;-83
2020/12/22 13:24:04;;;;;;;64.70;34.35;;;;;;;2.78;100.00;98973.88;4282112;81;28565;-83
2020/12/22 13:30:08;;;;;;;69.15;34.25;;;;;;;2.82;100.00;98976.16;4272729;81;28602;-85
2020/12/22 13:36:10;;;;;;;73.12;35.95;;;;;;;2.72;100.00;98971.93;4317536;81;28599;-83
2020/12/22 13:42:14;;;;;;;82.65;39.03;;;;;;;2.78;100.00;98966.39;4323663;81;28612;-83
2020/12/22 13:48:16;;;;;;;72.32;37.08;;;;;;;2.85;100.00;98963.34;4332770;81;28554;-83
2020/12/22 13:54:19;;;;;;;70.20;36.28;;;;;;;3.09;100.00;98971.22;4295244;81;28609;-82
2020/12/22 14:00:23;;;;;;;70.42;35.28;;;;;;;3.10;100.00;98967.56;4310216;81;28639;-82
2020/12/22 14:06:27;;;;;;;71.30;35.78;;;;;;;3.09;100.00;98963.26;4320432;81;28633;-81
2020/12/22 14:12:29;;;;;;;65.62;34.53;;;;;;;3.25;100.00;98963.04;4348541;81;28552;-82
2020/12/22 14:18:31;;;;;;;71.77;35.10;;;;;;;3.48;100.00;98972.71;4252557;81;28572;-82
2020/12/22 14:24:33;;;;;;;68.62;33.08;;;;;;;3.53;100.00;98974.81;4295894;81;28605;-81
2020/12/22 14:30:37;;;;;;;67.55;31.23;;;;;;;3.57;100.00;98982.75;4329481;81;28632;-79
2020/12/22 14:36:39;;;;;;;66.97;32.65;;;;;;;3.54;100.00;98976.45;4316439;81;28575;-83
2020/12/22 14:42:42;;;;;;;65.95;33.02;;;;;;;3.57;100.00;98982.23;4337247;81;28555;-84
2020/12/22 14:48:45;;;;;;;65.87;32.58;;;;;;;3.47;100.00;98968.41;4328754;81;28600;-83
2020/12/22 14:54:49;;;;;;;59.20;29.95;;;;;;;3.32;100.00;98967.10;4317568;81;28560;-84
2020/12/22 15:00:53;;;;;;;60.75;30.08;;;;;;;3.39;100.00;98969.34;4256949;82;28546;-86
2020/12/22 15:07:00;;;;;;;54.93;27.95;;;;;;;3.46;100.00;98981.38;4315687;81;28583;-83
2020/12/22 15:13:02;;;;;;;60.10;29.57;;;;;;;3.55;100.00;98982.13;4332234;81;28578;-85
2020/12/22 15:19:05;;;;;;;58.63;29.82;;;;;;;3.53;100.00;98978.31;4354324;81;28571;-84
2020/12/22 15:25:07;;;;;;;59.00;29.02;;;;;;;3.54;100.00;98973.80;4326563;81;28996;-84
2020/12/22 15:31:16;;;;;;;51.85;26.57;;;;;;;3.63;100.00;98970.86;4331032;81;28607;-84
2020/12/22 15:37:19;;;;;;;47.50;23.07;;;;;;;3.56;100.00;98963.30;4323040;81;28579;-86
2020/12/22 15:43:21;;;;;;;45.38;23.47;;;;;;;3.71;100.00;98957.14;4323270;81;28580;-86
2020/12/22 15:49:24;;;;;;;46.23;23.87;;;;;;;3.59;100.00;98954.98;4274714;82;28614;-86
2020/12/22 15:55:26;;;;;;;52.03;25.85;;;;;;;3.67;100.00;98942.55;4387016;80;28587;-89
2020/12/22 16:01:32;;;;;;;50.30;24.70;;;;;;;3.64;100.00;98943.75;4253942;82;28606;-87
2020/12/22 16:07:34;;;;;;;45.60;21.82;;;;;;;3.74;100.00;98942.13;4121139;84;28620;-86
2020/12/22 16:13:36;;;;;;;41.08;20.88;;;;;;;3.94;100.00;98946.30;4190548;83;28636;-87
2020/12/22 16:19:38;;;;;;;44.40;21.37;;;;;;;4.25;100.00;98939.02;4194456;83;28554;-86
2020/12/22 16:25:41;;;;;;;44.83;20.40;;;;;;;4.51;100.00;98947.71;4180148;83;28551;-87
2020/12/22 16:31:44;;;;;;;34.70;19.12;;;;;;;4.63;100.00;98950.64;4216825;83;28558;-86
2020/12/22 16:37:46;;;;;;;38.00;18.98;;;;;;;4.64;100.00;98953.65;4191583;83;28650;-85
2020/12/22 16:43:50;;;;;;;38.33;19.95;;;;;;;4.84;100.00;98948.93;4204099;83;28595;-84
2020/12/22 16:49:53;;;;;;;37.70;19.98;;;;;;;4.88;100.00;98951.01;4205777;83;28650;-85
2020/12/22 16:55:56;;;;;;;39.45;18.80;;;;;;;4.77;100.00;98953.41;4187550;81;28528;-85
2020/12/22 17:02:01;;;;;;;36.30;16.60;;;;;;;4.79;100.00;98951.38;4291297;81;47387;-85
2020/12/22 17:08:03;;;;;;;31.27;15.43;;;;;;;4.87;100.00;98957.89;4306548;81;28551;-79
2020/12/22 17:14:05;;;;;;;35.17;16.65;;;;;;;5.04;100.00;98941.06;4296906;81;28588;-80
2020/12/22 17:20:07;;;;;;;30.52;15.32;;;;;;;5.06;100.00;98935.55;4324043;81;28963;-82
2020/12/22 17:26:17;;;;;;;30.32;14.03;;;;;;;5.06;100.00;98940.35;4251725;83;28546;-84
2020/12/22 17:32:20;;;;;;;26.70;13.13;;;;;;;5.16;100.00;98956.80;4308671;81;28598;-82
2020/12/22 17:38:22;;;;;;;30.50;14.65;;;;;;;5.33;100.00;98958.31;4316554;81;28637;-81
2020/12/22 17:44:24;;;;;;;28.50;13.55;;;;;;;5.40;100.00;98952.50;4286542;81;28573;-84
2020/12/22 17:50:28;;;;;;;28.50;13.60;;;;;;;5.41;100.00;98960.28;4274052;81;28608;-83
2020/12/22 17:56:48;;;;;;;28.90;13.25;;;;;;;5.53;100.00;98965.06;4387275;79;65189;-83
2020/12/22 18:03:06;;;;;;;29.82;14.33;;;;;;;5.60;100.00;98961.89;4369171;80;258948;-85
2020/12/22 18:09:14;;;;;;;28.60;14.07;;;;;;;5.55;100.00;98958.48;4306928;81;28600;-85
2020/12/22 18:15:18;;;;;;;26.60;13.15;;;;;;;5.41;100.00;98974.95;4321055;81;28665;-87
2020/12/22 18:21:22;;;;;;;27.65;12.95;;;;;;;5.41;100.00;98964.81;4317714;81;28574;-83
2020/12/22 18:27:26;;;;;;;25.72;12.30;;;;;;;5.43;100.00;98957.42;4245122;83;28585;-84
2020/12/22 18:33:31;;;;;;;22.35;11.75;;;;;;;5.55;100.00;98962.49;4196827;84;28606;-84
2020/12/22 18:39:33;;;;;;;23.95;12.20;;;;;;;5.51;100.00;98967.09;4180245;84;28552;-87
2020/12/22 18:45:42;;;;;;;21.05;11.22;;;;;;;5.70;100.00;98964.19;4173132;84;28651;-86
2020/12/22 18:51:45;;;;;;;22.13;11.03;;;;;;;5.80;100.00;98961.96;4178591;84;28613;-80
2020/12/22 18:57:47;;;;;;;21.27;10.82;;;;;;;5.86;100.00;98971.00;4213953;82;28629;-91
2020/12/22 19:03:52;;;;;;;26.35;14.03;;;;;;;5.81;100.00;98968.94;4196709;83;28584;-87
2020/12/22 19:10:11;;;;;;;31.07;14.65;;;;;;;5.89;100.00;98960.45;4579709;77;85144;-86
2020/12/22 19:16:19;;;;;;;30.27;14.40;;;;;;;5.96;100.00;98968.77;4491583;77;28569;-87
2020/12/22 19:22:22;;;;;;;28.17;12.68;;;;;;;5.96;100.00;98974.60;4459189;79;28582;-88
2020/12/22 19:28:25;;;;;;;24.25;11.50;;;;;;;6.00;100.00;98976.66;4458680;77;28555;-87
2020/12/22 19:45:21;;;;;;;29.30;14.10;;;;;;;6.10;100.00;98972.81;4600611;76;74915;-84
2020/12/22 19:51:23;;;;;;;25.88;12.88;;;;;;;6.05;100.00;98986.77;4458464;78;28559;-86
2020/12/22 19:57:27;;;;;;;22.67;10.85;;;;;;;6.04;100.00;98994.47;4482657;78;28569;-87
2020/12/22 20:03:29;;;;;;;22.02;9.48;;;;;;;6.06;100.00;98981.73;4479575;78;28559;-91
2020/12/22 20:09:34;;;;;;;17.37;8.98;;;;;;;6.10;100.00;98987.00;4481246;78;28649;-83
2020/12/22 20:15:36;;;;;;;18.00;8.85;;;;;;;6.06;100.00;98983.07;4479961;78;28616;-84
2020/12/22 20:21:38;;;;;;;16.40;7.75;;;;;;;6.18;100.00;98981.13;4501103;78;28577;-82
2020/12/22 20:27:41;;;;;;;16.37;6.85;;;;;;;6.18;100.00;98985.97;4502701;78;28548;-86
2020/12/22 20:33:44;;;;;;;14.07;6.60;;;;;;;6.10;100.00;98974.15;4497224;78;28535;-82
2020/12/22 20:39:46;;;;;;;14.47;6.55;;;;;;;6.23;100.00;98980.02;4483279;78;28584;-85
2020/12/22 20:45:51;;;;;;;17.80;8.10;;;;;;;6.30;100.00;98979.52;4499645;78;28546;-86
2020/12/22 20:51:53;;;;;;;20.65;7.78;;;;;;;6.33;100.00;98980.44;4514278;79;28600;-84
2020/12/22 20:57:55;;;;;;;16.42;7.00;;;;;;;6.31;100.00;98976.33;4513449;79;28558;-86
2020/12/22 21:03:58;;;;;;;13.45;6.60;;;;;;;6.24;100.00;98974.46;4403265;80;28600;-84
2020/12/22 21:10:00;;;;;;;14.10;5.92;;;;;;;6.36;100.00;98973.34;4405834;80;28557;-90
2020/12/22 21:16:02;;;;;;;13.75;6.65;;;;;;;6.40;100.00;98975.09;4361300;81;28542;-82
2020/12/22 21:22:06;;;;;;;11.18;5.92;;;;;;;6.49;100.00;98966.36;4327818;81;28603;-84
2020/12/22 21:28:08;;;;;;;10.55;4.97;;;;;;;6.50;100.00;98985.36;4348893;81;28613;-85
2020/12/22 21:34:13;;;;;;;9.63;4.62;;;;;;;6.54;100.00;98972.72;4361508;82;28568;-87
2020/12/22 21:40:15;;;;;;;11.70;5.58;;;;;;;6.59;100.00;98985.99;4361687;81;28683;-78
2020/12/22 21:46:26;;;;;;;15.55;6.80;;;;;;;6.68;100.00;98986.90;4340509;81;28619;-80
2020/12/22 21:52:35;;;;;;;19.90;10.35;;;;;;;6.67;100.00;98997.28;4339499;80;28583;-81
2020/12/22 21:58:38;;;;;;;17.67;8.18;;;;;;;6.66;100.00;98992.97;4339142;80;28601;-79
2020/12/22 22:04:43;;;;;;;13.30;7.55;;;;;;;6.72;100.00;99002.00;4347819;80;28551;-81
2020/12/22 22:10:45;;;;;;;11.85;5.92;;;;;;;6.55;100.00;99002.41;4354627;81;28629;-83
2020/12/22 22:16:52;;;;;;;11.03;5.08;;;;;;;6.55;100.00;99001.08;4365696;80;28657;-82
2020/12/22 22:22:55;;;;;;;10.53;5.25;;;;;;;6.60;100.00;99006.33;4356035;80;28580;-83
2020/12/22 22:35:11;;;;;;;10.78;4.78;;;;;;;6.64;100.00;99003.05;4368329;79;85398;-84
2020/12/22 22:41:15;;;;;;;11.68;5.50;;;;;;;6.64;100.00;98985.68;4321121;81;28655;-81
2020/12/22 22:47:17;;;;;;;10.65;5.60;;;;;;;6.54;100.00;98987.94;4301831;81;28637;-81
2020/12/22 22:53:19;;;;;;;14.47;6.83;;;;;;;6.66;100.00;99004.16;4322463;80;28553;-81
2020/12/22 22:59:22;;;;;;;15.72;7.03;;;;;;;6.73;100.00;99000.97;4300033;81;28543;-81
2020/12/22 23:05:26;;;;;;;14.98;6.97;;;;;;;6.59;100.00;99000.16;4333935;81;28612;-80
2020/12/22 23:11:29;;;;;;;13.40;6.42;;;;;;;6.58;100.00;98998.52;4306777;81;28548;-82
2020/12/22 23:17:33;;;;;;;12.82;6.22;;;;;;;6.57;100.00;99004.08;4317743;80;28561;-81
2020/12/22 23:23:37;;;;;;;16.90;7.47;;;;;;;6.66;100.00;98992.97;4292440;81;28544;-81
2020/12/22 23:29:40;;;;;;;16.32;7.85;;;;;;;6.66;100.00;98986.79;4328259;80;28718;-81
2020/12/22 23:35:43;;;;;;;13.65;7.12;;;;;;;6.64;100.00;98991.02;4308780;81;28546;-79
2020/12/22 23:41:48;;;;;;;12.68;6.70;;;;;;;6.70;100.00;98998.20;4304302;81;28576;-79
2020/12/22 23:47:50;;;;;;;12.73;6.58;;;;;;;6.63;100.00;98994.72;4331645;81;28562;-80
2020/12/22 23:53:52;;;;;;;12.98;6.25;;;;;;;6.57;100.00;99000.08;4333954;80;28587;-80
2020/12/22 23:59:58;;;;;;;14.53;6.28;;;;;;;6.56;100.00;98980.54;4302586;80;28575;-80
